createdAt,value
2018-03-04T00:01:44.879Z,46.70
2018-03-04T00:04:12.421Z,47.87
2018-03-04T00:06:39.909Z,46.27
2018-03-04T00:09:07.364Z,45.53
2018-03-04T00:11:34.831Z,48.40
2018-03-04T00:14:02.278Z,49.67
2018-03-04T00:16:29.741Z,49.17
2018-03-04T00:18:57.486Z,48.37
2018-03-04T00:21:24.942Z,49.07
2018-03-04T00:23:52.621Z,48.70
2018-03-04T00:26:20.368Z,49.83
2018-03-04T00:28:47.832Z,48.40
2018-03-04T00:31:15.294Z,49.33
2018-03-04T00:33:42.746Z,48.97
2018-03-04T00:36:10.232Z,48.23
2018-03-04T00:38:37.691Z,50.13
2018-03-04T00:41:05.417Z,52.13
2018-03-04T00:43:32.874Z,50.70
2018-03-04T00:46:00.362Z,51.27
2018-03-04T00:48:27.818Z,49.83
2018-03-04T00:50:55.551Z,51.77
2018-03-04T00:53:23.016Z,49.23
2018-03-04T00:55:50.474Z,51.17
2018-03-04T00:58:17.943Z,52.17
2018-03-04T01:00:45.402Z,55.30
2018-03-04T01:03:13.310Z,51.67
2018-03-04T01:05:41.546Z,50.93
2018-03-04T01:08:09.287Z,50.63
2018-03-04T01:10:36.756Z,51.57
2018-03-04T01:13:04.219Z,53.07
2018-03-04T01:15:31.675Z,52.23
2018-03-04T01:17:59.527Z,50.87
2018-03-04T01:20:26.990Z,53.43
2018-03-04T01:22:54.450Z,55.87
2018-03-04T01:25:22.207Z,52.97
2018-03-04T01:27:49.972Z,54.60
2018-03-04T01:30:17.445Z,53.40
2018-03-04T01:32:45.670Z,53.27
2018-03-04T01:35:13.129Z,52.90
2018-03-04T01:37:41.638Z,54.67
2018-03-04T01:40:09.108Z,55.73
2018-03-04T01:42:36.557Z,55.40
2018-03-04T01:45:04.026Z,57.10
2018-03-04T01:47:31.485Z,54.10
2018-03-04T01:49:59.438Z,56.67
2018-03-04T01:52:26.908Z,55.43
2018-03-04T01:54:54.355Z,53.17
2018-03-04T01:57:21.818Z,53.07
2018-03-04T01:59:49.278Z,56.43
2018-03-04T02:02:17.025Z,54.73
2018-03-04T02:04:44.491Z,57.60
2018-03-04T02:07:11.990Z,57.80
2018-03-04T02:09:39.458Z,57.40
2018-03-04T02:12:06.914Z,57.77
2018-03-04T02:14:34.383Z,56.13
2018-03-04T02:17:02.084Z,56.33
2018-03-04T02:19:29.553Z,56.43
2018-03-04T02:24:30.838Z,53.43
2018-03-04T02:26:58.562Z,55.67
2018-03-04T02:29:26.031Z,56.03
2018-03-04T02:31:53.483Z,55.90
2018-03-04T02:34:20.946Z,54.47
2018-03-04T02:36:48.411Z,53.83
2018-03-04T02:39:15.865Z,57.87
2018-03-04T02:41:43.365Z,52.77
2018-03-04T02:44:11.893Z,57.50
2018-03-04T02:46:39.345Z,55.47
2018-03-04T02:49:06.845Z,53.90
2018-03-04T02:51:34.276Z,54.13
2018-03-04T02:54:01.962Z,54.13
2018-03-04T02:56:29.422Z,54.93
2018-03-04T02:58:56.884Z,56.57
2018-03-04T03:01:24.346Z,58.43
2018-03-04T03:03:51.841Z,55.33
2018-03-04T03:06:19.303Z,54.77
2018-03-04T03:08:46.759Z,55.67
2018-03-04T03:11:14.275Z,53.87
2018-03-04T03:13:41.690Z,56.50
2018-03-04T03:16:09.141Z,53.60
2018-03-04T03:18:36.897Z,54.63
2018-03-04T03:21:04.362Z,56.00
2018-03-04T03:23:31.829Z,56.77
2018-03-04T03:25:59.291Z,55.80
2018-03-04T03:28:26.758Z,54.53
2018-03-04T03:30:54.237Z,53.77
2018-03-04T03:33:21.683Z,56.27
2018-03-04T03:35:49.166Z,55.93
2018-03-04T03:38:17.786Z,56.40
2018-03-04T03:40:45.263Z,55.07
2018-03-04T03:43:13.006Z,58.20
2018-03-04T03:45:40.479Z,56.13
2018-03-04T03:48:07.938Z,57.63
2018-03-04T03:50:35.691Z,56.33
2018-03-04T03:53:03.163Z,55.80
2018-03-04T03:55:30.618Z,58.17
2018-03-04T03:57:58.091Z,55.93
2018-03-04T04:00:25.551Z,56.17
2018-03-04T04:02:53.001Z,54.83
2018-03-04T04:05:20.461Z,54.90
2018-03-04T04:07:47.917Z,55.93
2018-03-04T04:10:15.653Z,56.60
2018-03-04T04:12:43.347Z,55.57
2018-03-04T04:15:11.074Z,57.83
2018-03-04T04:17:38.538Z,57.50
2018-03-04T04:20:06.398Z,56.27
2018-03-04T04:22:33.860Z,57.53
2018-03-04T04:25:01.330Z,59.37
2018-03-04T04:27:28.786Z,58.87
2018-03-04T04:29:56.237Z,56.73
2018-03-04T04:32:23.706Z,57.93
2018-03-04T04:34:51.174Z,54.77
2018-03-04T04:37:18.634Z,56.30
2018-03-04T04:39:46.094Z,56.40
2018-03-04T04:42:13.582Z,56.50
2018-03-04T04:44:42.026Z,58.50
2018-03-04T04:47:09.757Z,58.80
2018-03-04T04:49:37.213Z,57.03
2018-03-04T04:52:04.674Z,56.47
2018-03-04T04:54:32.134Z,56.57
2018-03-04T04:56:59.604Z,57.27
2018-03-04T04:59:27.066Z,54.73
2018-03-04T05:01:54.807Z,56.37
2018-03-04T05:04:22.278Z,55.17
2018-03-04T05:06:50.031Z,53.97
2018-03-04T05:09:17.518Z,55.00
2018-03-04T05:11:44.977Z,53.77
2018-03-04T05:14:12.706Z,53.60
2018-03-04T05:16:40.167Z,53.60
2018-03-04T05:19:07.628Z,54.13
2018-03-04T05:21:35.099Z,54.07
2018-03-04T05:24:03.318Z,51.40
2018-03-04T05:26:31.555Z,53.77
2018-03-04T05:28:59.011Z,53.17
2018-03-04T05:31:27.266Z,49.67
2018-03-04T05:33:55.027Z,52.13
2018-03-04T05:36:22.487Z,51.07
2018-03-04T05:38:49.948Z,50.43
2018-03-04T05:41:17.701Z,50.60
2018-03-04T05:43:45.162Z,51.57
2018-03-04T05:46:12.631Z,50.03
2018-03-04T05:48:40.093Z,50.43
2018-03-04T05:51:07.546Z,48.60
2018-03-04T05:53:35.779Z,50.00
2018-03-04T05:56:04.291Z,49.27
2018-03-04T05:58:32.051Z,49.07
2018-03-04T06:00:59.518Z,51.07
2018-03-04T06:03:27.277Z,50.63
2018-03-04T06:05:54.751Z,50.50
2018-03-04T06:08:22.206Z,49.87
2018-03-04T06:10:50.438Z,53.50
2018-03-04T06:13:18.746Z,46.90
2018-03-04T06:15:46.209Z,41.07
2018-03-04T06:18:13.665Z,47.57
2018-03-04T06:20:41.134Z,46.73
2018-03-04T06:23:09.596Z,47.83
2018-03-04T06:25:37.355Z,44.90
2018-03-04T06:28:04.831Z,42.53
2018-03-04T06:30:32.314Z,44.40
2018-03-04T06:33:00.036Z,44.43
2018-03-04T06:35:27.495Z,43.53
2018-03-04T06:37:54.963Z,43.73
2018-03-04T06:40:22.423Z,42.67
2018-03-04T06:42:50.169Z,51.77
2018-03-04T06:45:17.938Z,64.07
2018-03-04T06:47:45.411Z,42.97
2018-03-04T06:50:12.886Z,41.83
2018-03-04T06:52:40.337Z,40.00
2018-03-04T06:55:07.808Z,41.00
2018-03-04T06:57:35.262Z,41.87
2018-03-04T07:00:02.730Z,45.10
2018-03-04T07:02:30.247Z,43.43
2018-03-04T07:04:57.697Z,41.87
2018-03-04T07:07:25.164Z,43.80
2018-03-04T07:09:52.622Z,40.33
2018-03-04T07:12:20.373Z,42.90
2018-03-04T07:14:47.830Z,44.03
2018-03-04T07:17:15.299Z,42.53
2018-03-04T07:19:43.045Z,42.73
2018-03-04T07:22:10.815Z,43.83
2018-03-04T07:24:38.280Z,43.90
2018-03-04T07:27:05.743Z,42.57
2018-03-04T07:29:33.213Z,42.57
2018-03-04T07:32:00.662Z,41.37
2018-03-04T07:34:28.125Z,42.03
2018-03-04T07:36:55.600Z,42.83
2018-03-04T07:39:23.062Z,42.47
2018-03-04T07:41:50.748Z,40.23
2018-03-04T07:44:18.973Z,39.33
2018-03-04T07:46:46.442Z,40.87
2018-03-04T07:49:13.904Z,42.23
2018-03-04T07:51:41.626Z,42.20
2018-03-04T07:54:09.394Z,40.53
2018-03-04T07:56:36.855Z,40.03
2018-03-04T07:59:04.315Z,39.63
2018-03-04T08:01:31.782Z,39.57
2018-03-04T08:03:59.229Z,40.07
2018-03-04T08:06:26.690Z,40.07
2018-03-04T08:08:54.159Z,40.03
2018-03-04T08:11:21.697Z,39.13
2018-03-04T08:13:49.195Z,39.53
2018-03-04T08:16:16.719Z,40.40
2018-03-04T08:18:44.218Z,43.23
2018-03-04T08:21:12.455Z,41.93
2018-03-04T08:23:39.922Z,40.80
2018-03-04T08:26:19.362Z,40.07
2018-03-04T08:28:47.102Z,39.30
2018-03-04T08:31:14.578Z,38.53
2018-03-04T08:33:42.032Z,37.13
2018-03-04T08:36:09.500Z,38.93
2018-03-04T08:38:37.722Z,38.73
2018-03-04T08:41:05.515Z,37.77
2018-03-04T08:43:32.969Z,39.40
2018-03-04T08:46:00.451Z,35.00
2018-03-04T08:48:27.919Z,37.40
2018-03-04T08:50:58.738Z,36.30
2018-03-04T08:53:26.210Z,38.00
2018-03-04T08:55:56.377Z,36.23
2018-03-04T08:58:24.606Z,36.83
2018-03-04T09:00:52.060Z,33.43
2018-03-04T09:03:19.530Z,36.77
2018-03-04T09:05:46.990Z,33.57
2018-03-04T09:08:14.450Z,35.50
2018-03-04T09:10:41.922Z,36.87
2018-03-04T09:13:10.143Z,35.17
2018-03-04T09:15:37.668Z,35.13
2018-03-04T09:18:05.896Z,36.57
2018-03-04T09:20:33.378Z,35.87
2018-03-04T09:23:00.850Z,36.93
2018-03-04T09:25:28.307Z,37.57
2018-03-04T09:27:56.533Z,37.60
2018-03-04T09:30:24.281Z,38.57
2018-03-04T09:32:51.750Z,39.77
2018-03-04T09:35:19.204Z,38.73
2018-03-04T09:37:46.692Z,38.67
2018-03-04T09:40:14.142Z,36.63
2018-03-04T09:42:41.612Z,35.77
2018-03-04T09:45:09.331Z,38.80
2018-03-04T09:47:36.795Z,37.73
2018-03-04T09:50:04.255Z,39.30
2018-03-04T09:52:31.718Z,38.57
2018-03-04T09:54:59.176Z,39.00
2018-03-04T09:57:26.638Z,40.07
2018-03-04T09:59:54.098Z,38.83
2018-03-04T10:02:21.564Z,41.93
2018-03-04T10:04:49.015Z,39.20
2018-03-04T10:07:16.483Z,41.50
2018-03-04T10:09:43.966Z,41.97
2018-03-04T10:12:12.179Z,40.57
2018-03-04T10:14:39.648Z,40.47
2018-03-04T10:17:07.106Z,37.47
2018-03-04T10:19:34.584Z,38.70
2018-03-04T10:22:02.050Z,39.13
2018-03-04T10:24:29.502Z,35.23
2018-03-04T10:26:56.963Z,36.07
2018-03-04T10:29:24.418Z,35.47
2018-03-04T10:31:51.877Z,32.93
2018-03-04T10:34:19.338Z,31.13
2018-03-04T10:36:46.956Z,31.03
2018-03-04T10:39:14.423Z,30.23
2018-03-04T10:41:41.888Z,28.43
2018-03-04T10:44:09.347Z,25.53
2018-03-04T10:46:36.799Z,25.23
2018-03-04T10:49:04.478Z,23.30
2018-03-04T10:51:32.202Z,22.67
2018-03-04T10:53:59.890Z,20.63
2018-03-04T10:56:27.358Z,20.93
2018-03-04T10:58:54.822Z,20.47
2018-03-04T11:01:28.381Z,20.20
2018-03-04T11:03:56.198Z,17.23
2018-03-04T11:06:23.631Z,13.80
2018-03-04T11:08:51.312Z,13.43
2018-03-04T11:11:18.781Z,12.37
2018-03-04T11:13:47.008Z,11.67
2018-03-04T11:16:14.474Z,12.00
2018-03-04T11:18:41.942Z,13.10
2018-03-04T11:21:09.407Z,11.87
2018-03-04T11:23:36.870Z,11.73
2018-03-04T11:26:04.334Z,12.63
2018-03-04T11:28:32.079Z,15.00
2018-03-04T11:30:59.510Z,17.23
2018-03-04T11:33:26.988Z,19.73
2018-03-04T11:35:54.455Z,20.10
2018-03-04T11:38:21.918Z,20.80
2018-03-04T11:40:49.408Z,20.77
2018-03-04T11:43:17.680Z,20.00
2018-03-04T11:45:45.969Z,19.50
2018-03-04T11:48:13.427Z,19.13
2018-03-04T11:50:40.894Z,18.00
2018-03-04T11:53:08.361Z,17.60
2018-03-04T11:55:35.822Z,17.63
2018-03-04T11:58:03.284Z,16.40
2018-03-04T12:00:30.947Z,16.60
2018-03-04T12:02:58.406Z,16.53
2018-03-04T12:05:25.870Z,16.20
2018-03-04T12:07:53.334Z,15.23
2018-03-04T12:10:20.794Z,15.13
2018-03-04T12:12:48.249Z,13.93
2018-03-04T12:15:26.697Z,13.03
2018-03-04T12:17:54.923Z,12.80
2018-03-04T12:20:22.391Z,13.63
2018-03-04T12:22:49.870Z,13.20
2018-03-04T12:25:18.122Z,15.00
2018-03-04T12:27:45.602Z,14.33
2018-03-04T12:30:13.059Z,14.67
2018-03-04T12:32:40.535Z,15.47
2018-03-04T12:35:08.763Z,13.63
2018-03-04T12:37:36.231Z,14.53
2018-03-04T12:40:03.721Z,14.03
2018-03-04T12:42:31.276Z,13.00
2018-03-04T12:44:58.735Z,12.90
2018-03-04T12:47:26.232Z,12.97
2018-03-04T12:49:54.720Z,12.57
2018-03-04T12:52:22.197Z,12.37
2018-03-04T12:54:49.654Z,12.10
2018-03-04T12:57:17.126Z,11.73
2018-03-04T12:59:44.592Z,11.60
2018-03-04T13:02:12.054Z,10.83
2018-03-04T13:04:39.515Z,9.33
2018-03-04T13:07:06.969Z,10.10
2018-03-04T13:09:34.458Z,9.93
2018-03-04T13:12:01.918Z,10.10
2018-03-04T13:14:29.377Z,9.00
2018-03-04T13:16:56.831Z,8.33
2018-03-04T13:19:24.294Z,9.30
2018-03-04T13:21:51.758Z,8.47
2018-03-04T13:24:19.221Z,8.37
2018-03-04T13:26:46.678Z,9.13
2018-03-04T13:29:14.183Z,8.63
2018-03-04T13:31:41.651Z,8.33
2018-03-04T13:34:10.171Z,8.00
2018-03-04T13:36:37.636Z,8.63
2018-03-04T13:39:05.094Z,10.10
2018-03-04T13:41:32.854Z,9.47
2018-03-04T13:44:00.315Z,8.90
2018-03-04T13:46:27.885Z,9.40
2018-03-04T13:48:55.353Z,11.03
2018-03-04T13:51:22.805Z,11.33
2018-03-04T13:53:50.266Z,9.70
2018-03-04T13:56:17.947Z,10.60
2018-03-04T13:58:45.668Z,10.80
2018-03-04T14:01:13.426Z,12.50
2018-03-04T14:03:40.890Z,13.03
2018-03-04T14:06:08.346Z,12.87
2018-03-04T14:08:35.811Z,12.23
2018-03-04T14:11:03.271Z,12.10
2018-03-04T14:13:30.729Z,12.27
2018-03-04T14:15:58.191Z,12.27
2018-03-04T14:18:26.422Z,12.33
2018-03-04T14:20:54.658Z,12.77
2018-03-04T14:23:22.120Z,13.30
2018-03-04T14:25:49.594Z,12.23
2018-03-04T14:28:17.057Z,13.10
2018-03-04T14:30:45.293Z,13.73
2018-03-04T14:33:13.514Z,14.60
2018-03-04T14:35:41.747Z,14.00
2018-03-04T14:38:09.222Z,13.77
2018-03-04T14:40:37.465Z,14.63
2018-03-04T14:43:04.934Z,13.90
2018-03-04T14:45:32.390Z,15.40
2018-03-04T14:47:59.851Z,15.13
2018-03-04T14:50:28.091Z,15.00
2018-03-04T14:52:55.567Z,14.90
2018-03-04T14:55:23.322Z,14.60
2018-03-04T14:57:50.998Z,13.70
2018-03-04T15:00:18.850Z,13.83
2018-03-04T15:02:46.335Z,12.90
2018-03-04T15:05:13.795Z,12.73
2018-03-04T15:07:41.718Z,12.57
2018-03-04T15:10:09.180Z,12.50
2018-03-04T15:12:36.709Z,12.23
2018-03-04T15:15:07.066Z,12.67
2018-03-04T15:17:34.538Z,12.47
2018-03-04T15:20:03.798Z,12.93
2018-03-04T15:22:32.030Z,12.70
2018-03-04T15:24:59.501Z,12.53
2018-03-04T15:27:26.967Z,13.63
2018-03-04T15:29:54.425Z,13.60
2018-03-04T15:32:21.888Z,13.70
2018-03-04T15:34:50.007Z,14.20
2018-03-04T15:37:17.462Z,13.80
2018-03-04T15:39:44.926Z,13.93
2018-03-04T15:42:12.382Z,13.43
2018-03-04T15:44:39.850Z,13.87
2018-03-04T15:47:07.302Z,14.40
2018-03-04T15:49:34.983Z,13.87
2018-03-04T15:52:02.456Z,13.00
2018-03-04T15:54:29.909Z,13.90
2018-03-04T15:56:57.368Z,12.07
2018-03-04T15:59:25.086Z,13.83
2018-03-04T16:01:52.554Z,13.67
2018-03-04T16:04:20.023Z,14.40
2018-03-04T16:06:47.481Z,13.93
2018-03-04T16:09:14.944Z,14.07
2018-03-04T16:11:43.190Z,14.23
2018-03-04T16:14:10.657Z,14.63
2018-03-04T16:16:38.414Z,14.93
2018-03-04T16:19:05.883Z,14.30
2018-03-04T16:21:33.338Z,14.53
2018-03-04T16:24:00.805Z,12.33
2018-03-04T16:26:28.547Z,13.23
2018-03-04T16:28:56.315Z,12.37
2018-03-04T16:31:23.776Z,12.20
2018-03-04T16:33:51.239Z,12.10
2018-03-04T16:36:18.695Z,12.50
2018-03-04T16:38:46.157Z,13.27
2018-03-04T16:41:13.626Z,12.93
2018-03-04T16:43:41.094Z,14.20
2018-03-04T16:46:08.581Z,13.87
2018-03-04T16:48:36.834Z,14.90
2018-03-04T16:51:04.303Z,16.03
2018-03-04T16:53:32.562Z,15.97
2018-03-04T16:56:00.042Z,15.80
2018-03-04T16:58:28.338Z,17.27
2018-03-04T17:00:55.750Z,17.87
2018-03-04T17:03:23.431Z,17.37
2018-03-04T17:05:50.898Z,18.47
2018-03-04T17:08:19.185Z,18.13
2018-03-04T17:10:47.402Z,17.70
2018-03-04T17:13:14.875Z,18.67
2018-03-04T17:15:42.331Z,18.83
2018-03-04T17:18:10.059Z,18.50
2018-03-04T17:20:37.527Z,18.30
2018-03-04T17:23:04.989Z,17.50
2018-03-04T17:25:32.459Z,19.30
2018-03-04T17:27:59.909Z,19.07
2018-03-04T17:30:28.142Z,19.23
2018-03-04T17:32:56.357Z,20.20
2018-03-04T17:35:23.823Z,20.53
2018-03-04T17:37:51.286Z,19.63
2018-03-04T17:40:18.766Z,19.87
2018-03-04T17:42:46.229Z,20.13
2018-03-04T17:45:14.455Z,22.37
2018-03-04T17:47:42.214Z,21.73
2018-03-04T17:50:09.674Z,20.63
2018-03-04T17:52:37.149Z,20.47
2018-03-04T17:55:04.605Z,20.93
2018-03-04T17:57:32.065Z,20.27
2018-03-04T17:59:59.522Z,20.40
2018-03-04T18:02:27.258Z,22.20
2018-03-04T18:04:55.022Z,20.70
2018-03-04T18:07:22.489Z,21.13
2018-03-04T18:09:49.950Z,22.63
2018-03-04T18:12:17.411Z,22.10
2018-03-04T18:14:44.870Z,21.30
2018-03-04T18:17:12.332Z,24.27
2018-03-04T18:19:39.799Z,22.97
2018-03-04T18:22:07.253Z,22.93
2018-03-04T18:24:35.186Z,22.20
2018-03-04T18:27:02.657Z,24.57
2018-03-04T18:29:30.126Z,23.60
2018-03-04T18:31:57.867Z,23.47
2018-03-04T18:34:25.324Z,24.93
2018-03-04T18:36:53.088Z,25.17
2018-03-04T18:39:20.551Z,26.03
2018-03-04T18:41:48.027Z,25.97
2018-03-04T18:44:15.496Z,25.47
2018-03-04T18:46:42.983Z,25.73
2018-03-04T18:49:12.527Z,26.77
2018-03-04T18:51:45.786Z,26.80
2018-03-04T18:54:13.963Z,27.40
2018-03-04T18:56:41.868Z,28.30
2018-03-04T18:59:09.628Z,28.10
2018-03-04T19:01:37.110Z,26.93
2018-03-04T19:04:04.586Z,28.80
2018-03-04T19:06:32.050Z,28.87
2018-03-04T19:09:00.630Z,32.27
2018-03-04T19:11:29.122Z,36.70
2018-03-04T19:13:57.366Z,34.27
2018-03-04T19:16:25.198Z,30.70
2018-03-04T19:18:52.674Z,30.80
2018-03-04T19:21:20.145Z,31.13
2018-03-04T19:23:47.609Z,32.10
2018-03-04T19:26:15.171Z,33.93
2018-03-04T19:28:42.684Z,33.00
2018-03-04T19:31:10.142Z,32.57
2018-03-04T19:33:37.602Z,34.97
2018-03-04T19:36:05.063Z,36.77
2018-03-04T19:38:33.644Z,35.10
2018-03-04T19:41:01.407Z,33.23
2018-03-04T19:43:32.080Z,41.17
2018-03-04T19:45:59.550Z,39.80
2018-03-04T19:48:27.009Z,37.47
2018-03-04T19:50:54.478Z,35.00
2018-03-04T19:53:25.230Z,38.23
2018-03-04T19:55:52.701Z,41.40
2018-03-04T19:58:20.162Z,40.53
2018-03-04T20:00:47.662Z,39.57
2018-03-04T20:03:15.383Z,41.07
2018-03-04T20:09:03.280Z,35.50
2018-03-04T20:11:33.497Z,34.40
2018-03-04T20:17:07.279Z,36.23
2018-03-04T20:19:34.858Z,37.07
2018-03-04T20:22:02.542Z,37.40
2018-03-04T20:24:30.116Z,37.20
2018-03-04T20:26:57.728Z,36.50
2018-03-04T20:29:25.303Z,36.53
2018-03-04T20:31:52.937Z,36.83
2018-03-04T20:34:21.252Z,38.37
2018-03-04T20:36:49.629Z,36.17
2018-03-04T20:39:17.220Z,38.00
2018-03-04T20:41:44.821Z,37.20
2018-03-04T20:44:12.408Z,39.43
2018-03-04T20:46:39.986Z,38.93
2018-03-04T20:49:07.568Z,38.77
2018-03-04T20:51:35.958Z,41.03
2018-03-04T20:54:03.539Z,40.27
2018-03-04T20:56:31.121Z,42.90
2018-03-04T20:58:58.696Z,39.73
2018-03-04T21:01:26.263Z,42.13
2018-03-04T21:03:53.825Z,42.40
2018-03-04T21:06:22.240Z,41.07
2018-03-04T21:08:49.825Z,40.53
2018-03-04T21:11:17.497Z,39.40
2018-03-04T21:13:45.084Z,40.53
2018-03-04T21:16:13.446Z,40.07
2018-03-04T21:18:41.027Z,38.23
2018-03-04T21:21:09.360Z,38.87
2018-03-04T21:23:36.979Z,40.70
2018-03-04T21:26:04.593Z,41.23
2018-03-04T21:28:32.180Z,41.03
2018-03-04T21:31:00.527Z,40.27
2018-03-04T21:33:28.888Z,39.60
2018-03-04T21:35:56.468Z,42.67
2018-03-04T21:38:25.175Z,42.47
2018-03-04T21:40:52.799Z,42.30
2018-03-04T21:43:20.353Z,41.73
2018-03-04T21:45:47.888Z,41.60
2018-03-04T21:48:15.457Z,42.03
2018-03-04T21:50:43.027Z,42.77
2018-03-04T21:53:10.592Z,40.57
2018-03-04T21:55:38.171Z,42.87
2018-03-04T21:58:05.749Z,41.97
2018-03-04T22:00:33.419Z,41.97
2018-03-04T22:03:00.984Z,41.73
2018-03-04T22:05:28.576Z,41.80
2018-03-04T22:07:56.149Z,40.30
2018-03-04T22:10:23.721Z,43.37
2018-03-04T22:12:52.087Z,42.53
2018-03-04T22:15:19.700Z,42.70
2018-03-04T22:17:47.318Z,43.27
2018-03-04T22:20:14.883Z,41.57
2018-03-04T22:22:43.221Z,42.10
2018-03-04T22:25:10.767Z,43.47
2018-03-04T22:27:38.382Z,41.80
2018-03-04T22:30:06.708Z,41.63
2018-03-04T22:32:34.260Z,42.37
2018-03-04T22:35:01.825Z,42.50
2018-03-04T22:37:29.390Z,41.13
2018-03-04T22:39:56.952Z,41.63
2018-03-04T22:42:24.532Z,43.13
2018-03-04T22:44:52.111Z,40.03
2018-03-04T22:47:19.700Z,41.57
2018-03-04T22:49:47.232Z,41.90
2018-03-04T22:52:15.585Z,41.73
2018-03-04T22:54:43.167Z,43.07
2018-03-04T22:57:11.523Z,43.03
2018-03-04T22:59:39.880Z,44.30
2018-03-04T23:02:07.483Z,44.67
2018-03-04T23:04:35.043Z,42.70
2018-03-04T23:07:03.364Z,43.97
2018-03-04T23:09:30.961Z,45.40
2018-03-04T23:11:58.534Z,47.57
2018-03-04T23:14:26.129Z,45.33
2018-03-04T23:16:53.694Z,45.07
2018-03-04T23:19:21.254Z,43.53
2018-03-04T23:21:48.852Z,44.73
2018-03-04T23:24:17.194Z,43.10
2018-03-04T23:26:44.740Z,43.57
2018-03-04T23:29:12.358Z,44.40
2018-03-04T23:31:39.960Z,43.03
2018-03-04T23:34:07.608Z,40.33
2018-03-04T23:36:35.965Z,42.40
2018-03-04T23:39:03.576Z,43.17
2018-03-04T23:41:31.941Z,41.63
2018-03-04T23:43:59.780Z,38.53
2018-03-04T23:46:27.377Z,41.97
2018-03-04T23:48:54.940Z,42.17
2018-03-04T23:51:22.528Z,42.60
2018-03-04T23:53:50.876Z,43.17
2018-03-04T23:56:18.490Z,42.90
2018-03-04T23:58:46.114Z,43.87
